createdAt,value
2023-02-22T00:00:22.897Z,8.45
2023-02-22T00:02:50.909Z,8.44
2023-02-22T00:05:20.153Z,8.44
2023-02-22T00:07:49.564Z,8.43
2023-02-22T00:10:20.418Z,8.44
2023-02-22T00:12:48.995Z,8.43
2023-02-22T00:15:17.165Z,8.44
2023-02-22T00:17:44.735Z,8.43
2023-02-22T00:20:14.074Z,8.43
2023-02-22T00:22:42.349Z,8.41
2023-02-22T00:25:11.462Z,8.39
2023-02-22T00:27:38.993Z,8.39
2023-02-22T00:30:07.033Z,8.39
2023-02-22T00:32:34.686Z,8.38
2023-02-22T00:35:05.535Z,8.37
2023-02-22T00:37:33.695Z,8.38
2023-02-22T00:40:01.170Z,8.37
2023-02-22T00:42:30.068Z,8.36
2023-02-22T00:45:00.513Z,8.37
2023-02-22T00:47:28.370Z,8.38
2023-02-22T00:49:55.967Z,8.37
2023-02-22T00:52:23.545Z,8.37
2023-02-22T00:54:51.107Z,8.37
2023-02-22T00:57:19.141Z,8.35
2023-02-22T00:59:48.121Z,8.33
2023-02-22T01:02:15.603Z,8.31
2023-02-22T01:04:43.136Z,8.30
2023-02-22T01:07:10.701Z,8.29
2023-02-22T01:09:39.605Z,8.28
2023-02-22T01:12:08.112Z,8.27
2023-02-22T01:14:35.632Z,8.27
2023-02-22T01:17:04.794Z,8.26
2023-02-22T01:19:32.999Z,8.24
2023-02-22T01:22:00.615Z,8.23
2023-02-22T01:24:28.227Z,8.24
2023-02-22T01:26:55.956Z,8.23
2023-02-22T01:29:23.572Z,8.23
2023-02-22T01:31:55.058Z,8.22
2023-02-22T01:34:24.652Z,8.23
2023-02-22T01:36:52.188Z,8.22
2023-02-22T01:39:19.665Z,8.23
2023-02-22T01:41:47.458Z,8.22
2023-02-22T01:44:19.252Z,8.21
2023-02-22T01:46:46.762Z,8.21
2023-02-22T01:49:15.065Z,8.19
2023-02-22T01:51:45.081Z,8.18
2023-02-22T01:54:13.829Z,8.17
2023-02-22T01:56:41.829Z,8.16
2023-02-22T01:59:12.455Z,8.13
2023-02-22T02:01:42.896Z,8.13
2023-02-22T02:04:11.653Z,8.12
2023-02-22T02:06:39.347Z,8.12
2023-02-22T02:09:10.806Z,8.11
2023-02-22T02:11:40.392Z,8.10
2023-02-22T02:14:08.975Z,8.09
2023-02-22T02:16:37.449Z,8.08
2023-02-22T02:19:05.067Z,8.09
2023-02-22T02:21:40.601Z,8.08
2023-02-22T02:24:23.912Z,8.07
2023-02-22T02:27:04.122Z,8.09
2023-02-22T02:29:50.078Z,8.08
2023-02-22T02:32:23.227Z,8.10
2023-02-22T02:34:51.507Z,8.08
2023-02-22T02:37:21.038Z,8.07
2023-02-22T02:39:50.286Z,8.04
2023-02-22T02:42:18.196Z,8.01
2023-02-22T02:44:47.225Z,7.98
2023-02-22T02:47:15.470Z,7.97
2023-02-22T02:49:45.335Z,7.95
2023-02-22T02:52:13.519Z,7.95
2023-02-22T02:54:41.116Z,7.97
2023-02-22T02:57:09.440Z,7.98
2023-02-22T02:59:37.470Z,7.99
2023-02-22T03:02:09.329Z,8.01
2023-02-22T03:04:39.479Z,8.00
2023-02-22T03:07:18.646Z,7.98
2023-02-22T03:09:49.931Z,7.97
2023-02-22T03:12:22.961Z,7.96
2023-02-22T03:14:55.744Z,7.95
2023-02-22T03:17:24.346Z,7.95
2023-02-22T03:19:52.563Z,7.95
2023-02-22T03:22:23.768Z,7.95
2023-02-22T03:24:53.058Z,7.93
2023-02-22T03:27:22.775Z,7.91
2023-02-22T03:29:50.729Z,7.91
2023-02-22T03:32:19.915Z,7.91
2023-02-22T03:34:50.633Z,7.91
2023-02-22T03:37:18.662Z,7.91
2023-02-22T03:39:47.611Z,7.92
2023-02-22T03:42:15.844Z,7.94
2023-02-22T03:44:43.833Z,7.93
2023-02-22T03:47:12.667Z,7.93
2023-02-22T03:49:41.622Z,7.93
2023-02-22T03:52:09.272Z,7.92
2023-02-22T03:54:36.848Z,7.92
2023-02-22T03:57:07.859Z,7.93
2023-02-22T03:59:35.346Z,7.90
2023-02-22T04:02:03.237Z,7.86
2023-02-22T04:04:30.793Z,7.86
2023-02-22T04:06:58.426Z,7.84
2023-02-22T04:09:26.065Z,7.81
2023-02-22T04:11:53.620Z,7.79
2023-02-22T04:14:23.844Z,7.75
2023-02-22T04:16:51.553Z,7.71
2023-02-22T04:19:19.163Z,7.68
2023-02-22T04:21:46.672Z,7.65
2023-02-22T04:24:14.360Z,7.64
2023-02-22T04:26:41.905Z,7.62
2023-02-22T04:29:09.525Z,7.60
2023-02-22T04:31:38.533Z,7.57
2023-02-22T04:34:06.301Z,7.56
2023-02-22T04:36:33.822Z,7.53
2023-02-22T04:39:01.444Z,7.51
2023-02-22T04:41:29.036Z,7.49
2023-02-22T04:43:57.331Z,7.47
2023-02-22T04:46:24.959Z,7.47
2023-02-22T04:48:54.043Z,7.45
2023-02-22T04:51:21.753Z,7.45
2023-02-22T04:53:49.250Z,7.44
2023-02-22T04:56:18.036Z,7.43
2023-02-22T04:58:45.546Z,7.43
2023-02-22T05:01:13.111Z,7.43
2023-02-22T05:03:40.672Z,7.42
2023-02-22T05:06:09.658Z,7.43
2023-02-22T05:08:37.216Z,7.42
2023-02-22T05:11:05.174Z,7.40
2023-02-22T05:13:32.680Z,7.40
2023-02-22T05:16:00.193Z,7.40
2023-02-22T05:18:27.670Z,7.40
2023-02-22T05:20:55.196Z,7.40
2023-02-22T05:23:24.151Z,7.41
2023-02-22T05:25:51.737Z,7.42
2023-02-22T05:28:19.443Z,7.43
2023-02-22T05:30:47.124Z,7.44
2023-02-22T05:33:14.753Z,7.43
2023-02-22T05:35:42.329Z,7.43
2023-02-22T05:38:11.260Z,7.42
2023-02-22T05:40:40.254Z,7.43
2023-02-22T05:43:07.902Z,7.43
2023-02-22T05:45:36.152Z,7.40
2023-02-22T05:48:03.903Z,7.40
2023-02-22T05:50:33.165Z,7.40
2023-02-22T05:53:00.921Z,7.40
2023-02-22T05:55:28.453Z,7.40
2023-02-22T05:57:57.351Z,7.39
2023-02-22T06:00:25.886Z,7.40
2023-02-22T06:02:56.930Z,7.39
2023-02-22T06:05:24.567Z,7.38
2023-02-22T06:07:52.355Z,7.36
2023-02-22T06:10:20.059Z,7.37
2023-02-22T06:12:47.623Z,7.36
2023-02-22T06:15:17.045Z,7.34
2023-02-22T06:17:44.984Z,7.33
2023-02-22T06:20:13.277Z,7.33
2023-02-22T06:22:41.170Z,7.32
2023-02-22T06:25:09.076Z,7.32
2023-02-22T06:27:37.406Z,7.33
2023-02-22T06:30:05.252Z,7.33
2023-02-22T06:32:34.239Z,7.34
2023-02-22T06:35:01.750Z,7.35
2023-02-22T06:37:29.289Z,7.35
2023-02-22T06:39:59.169Z,7.35
2023-02-22T06:42:28.308Z,7.37
2023-02-22T06:44:55.808Z,7.37
2023-02-22T06:47:23.289Z,7.38
2023-02-22T06:49:54.933Z,7.39
2023-02-22T06:52:22.772Z,7.37
2023-02-22T06:54:50.485Z,7.38
2023-02-22T06:57:18.388Z,7.38
2023-02-22T06:59:45.916Z,7.38
2023-02-22T07:02:13.772Z,7.39
2023-02-22T07:04:43.422Z,7.39
2023-02-22T07:07:12.608Z,7.39
2023-02-22T07:09:40.072Z,7.38
2023-02-22T07:12:07.960Z,7.36
2023-02-22T07:14:35.480Z,7.36
2023-02-22T07:17:03.366Z,7.34
2023-02-22T07:19:30.861Z,7.34
2023-02-22T07:21:59.357Z,7.32
2023-02-22T07:24:29.182Z,7.30
2023-02-22T07:26:56.767Z,7.28
2023-02-22T07:29:24.241Z,7.26
2023-02-22T07:31:58.884Z,7.22
2023-02-22T07:34:26.386Z,7.22
2023-02-22T07:36:53.925Z,7.23
2023-02-22T07:39:21.398Z,7.22
2023-02-22T07:41:50.902Z,7.22
2023-02-22T07:44:18.470Z,7.22
2023-02-22T07:46:47.792Z,7.23
2023-02-22T07:49:15.259Z,7.21
2023-02-22T07:51:42.741Z,7.20
2023-02-22T07:54:10.262Z,7.19
2023-02-22T07:56:37.707Z,7.19
2023-02-22T07:59:06.511Z,7.19
2023-02-22T08:01:35.630Z,7.19
2023-02-22T08:04:04.228Z,7.18
2023-02-22T08:06:32.037Z,7.16
2023-02-22T08:08:59.663Z,7.16
2023-02-22T08:11:27.282Z,7.14
2023-02-22T08:13:54.790Z,7.15
2023-02-22T08:16:23.634Z,7.16
2023-02-22T08:18:51.135Z,7.17
2023-02-22T08:21:19.017Z,7.16
2023-02-22T08:23:46.700Z,7.15
2023-02-22T08:26:18.494Z,7.16
2023-02-22T08:28:45.961Z,7.17
2023-02-22T08:31:13.561Z,7.15
2023-02-22T08:33:42.588Z,7.12
2023-02-22T08:36:10.275Z,7.11
2023-02-22T08:38:38.005Z,7.12
2023-02-22T08:41:06.927Z,7.13
2023-02-22T08:43:34.438Z,7.16
2023-02-22T08:46:02.007Z,7.18
2023-02-22T08:48:29.502Z,7.18
2023-02-22T08:50:58.737Z,7.21
2023-02-22T08:53:26.280Z,7.22
2023-02-22T08:55:53.883Z,7.23
2023-02-22T08:58:21.340Z,7.23
2023-02-22T09:00:49.160Z,7.24
2023-02-22T09:03:16.869Z,7.25
2023-02-22T09:05:44.830Z,7.26
2023-02-22T09:08:13.869Z,7.28
2023-02-22T09:10:41.922Z,7.30
2023-02-22T09:13:09.435Z,7.31
2023-02-22T09:15:37.195Z,7.31
2023-02-22T09:18:05.052Z,7.30
2023-02-22T09:20:32.546Z,7.33
2023-02-22T09:23:02.882Z,7.34
2023-02-22T09:25:31.959Z,7.36
2023-02-22T09:27:59.503Z,7.36
2023-02-22T09:30:28.224Z,7.37
2023-02-22T09:32:56.567Z,7.36
2023-02-22T09:35:27.123Z,7.36
2023-02-22T09:37:55.524Z,7.37
2023-02-22T09:40:25.942Z,7.36
2023-02-22T09:42:58.042Z,7.35
2023-02-22T09:45:28.638Z,7.35
2023-02-22T09:47:58.608Z,7.34
2023-02-22T09:50:29.722Z,7.34
2023-02-22T09:52:57.885Z,7.36
2023-02-22T09:55:31.040Z,7.39
2023-02-22T09:58:01.550Z,7.43
2023-02-22T10:00:32.490Z,7.44
2023-02-22T10:03:01.521Z,7.46
2023-02-22T10:05:31.100Z,7.47
2023-02-22T10:07:59.582Z,7.49
2023-02-22T10:10:28.186Z,7.52
2023-02-22T10:12:57.553Z,7.55
2023-02-22T10:15:46.120Z,7.57
2023-02-22T10:18:34.716Z,7.59
2023-02-22T10:21:03.652Z,7.59
2023-02-22T10:23:32.015Z,7.62
2023-02-22T10:26:00.786Z,7.64
2023-02-22T10:28:30.951Z,7.68
2023-02-22T10:31:01.452Z,7.71
2023-02-22T10:33:29.282Z,7.75
2023-02-22T10:35:56.825Z,7.81
2023-02-22T10:38:25.298Z,7.88
2023-02-22T10:40:54.886Z,7.92
2023-02-22T10:43:23.464Z,7.97
2023-02-22T10:45:51.602Z,8.01
2023-02-22T10:48:21.120Z,8.04
2023-02-22T10:50:48.779Z,8.08
2023-02-22T10:53:16.383Z,8.13
2023-02-22T10:56:02.563Z,8.19
2023-02-22T10:58:30.070Z,8.27
2023-02-22T11:00:57.588Z,8.33
2023-02-22T11:03:26.616Z,8.41
2023-02-22T11:05:54.140Z,8.47
2023-02-22T11:08:25.731Z,8.54
2023-02-22T11:10:53.844Z,8.61
2023-02-22T11:13:26.516Z,8.66
2023-02-22T11:15:54.294Z,8.71
2023-02-22T11:18:30.119Z,8.75
2023-02-22T11:21:04.648Z,8.81
2023-02-22T11:23:32.182Z,8.86
2023-02-22T11:26:03.780Z,8.91
2023-02-22T11:28:32.872Z,8.97
2023-02-22T11:31:01.250Z,9.01
2023-02-22T11:33:31.119Z,9.07
2023-02-22T11:35:59.352Z,9.12
2023-02-22T11:38:27.466Z,9.18
2023-02-22T11:41:17.539Z,9.24
2023-02-22T11:43:45.751Z,9.30
2023-02-22T11:46:14.099Z,9.36
2023-02-22T11:48:44.904Z,9.42
2023-02-22T11:51:16.233Z,9.52
2023-02-22T11:53:47.252Z,9.59
2023-02-22T11:56:20.566Z,9.70
2023-02-22T11:58:51.132Z,9.79
2023-02-22T12:01:22.541Z,9.89
2023-02-22T12:03:55.184Z,9.94
2023-02-22T12:06:27.016Z,10.00
2023-02-22T12:08:58.845Z,10.04
2023-02-22T12:11:27.205Z,10.05
2023-02-22T12:13:58.802Z,10.07
2023-02-22T12:16:29.878Z,10.09
2023-02-22T12:19:06.485Z,10.09
2023-02-22T12:21:33.977Z,10.12
2023-02-22T12:24:02.424Z,10.15
2023-02-22T12:26:31.541Z,10.20
2023-02-22T12:28:59.872Z,10.26
2023-02-22T12:31:29.385Z,10.30
2023-02-22T12:34:01.047Z,10.35
2023-02-22T12:36:32.881Z,10.40
2023-02-22T12:39:07.092Z,10.42
2023-02-22T12:41:36.552Z,10.43
2023-02-22T12:44:05.422Z,10.46
2023-02-22T12:46:33.858Z,10.46
2023-02-22T12:49:02.088Z,10.47
2023-02-22T12:51:31.605Z,10.50
2023-02-22T12:54:02.265Z,10.52
2023-02-22T12:56:31.558Z,10.53
2023-02-22T12:59:02.883Z,10.57
2023-02-22T13:01:31.470Z,10.60
2023-02-22T13:04:05.765Z,10.64
2023-02-22T13:06:45.675Z,10.68
2023-02-22T13:09:27.802Z,10.73
2023-02-22T13:11:56.569Z,10.78
2023-02-22T13:14:30.889Z,10.81
2023-02-22T13:16:59.448Z,10.83
2023-02-22T13:19:29.478Z,10.87
2023-02-22T13:21:58.902Z,10.89
2023-02-22T13:24:27.340Z,10.91
2023-02-22T13:26:55.105Z,10.91
2023-02-22T13:29:23.492Z,10.91
2023-02-22T13:32:09.095Z,10.92
2023-02-22T13:34:57.923Z,10.92
2023-02-22T13:37:32.969Z,10.93
2023-02-22T13:40:16.875Z,10.95
2023-02-22T13:42:57.587Z,10.94
2023-02-22T13:45:38.972Z,10.96
2023-02-22T13:48:09.894Z,10.95
2023-02-22T13:50:58.379Z,10.93
2023-02-22T13:53:27.853Z,10.92
2023-02-22T13:55:57.760Z,10.93
2023-02-22T13:58:25.770Z,10.93
2023-02-22T14:00:55.677Z,10.92
2023-02-22T14:03:34.270Z,10.92
2023-02-22T14:06:02.386Z,10.92
2023-02-22T14:08:42.019Z,10.93
2023-02-22T14:11:26.155Z,10.95
2023-02-22T14:14:12.998Z,10.97
2023-02-22T14:16:40.580Z,10.98
2023-02-22T14:19:14.640Z,11.00
2023-02-22T14:21:56.090Z,11.01
2023-02-22T14:24:27.476Z,11.04
2023-02-22T14:26:56.144Z,11.06
2023-02-22T14:29:23.647Z,11.10
2023-02-22T14:32:00.105Z,11.11
2023-02-22T14:34:40.072Z,11.14
2023-02-22T14:37:13.225Z,11.19
2023-02-22T14:39:43.514Z,11.21
2023-02-22T14:42:14.223Z,11.23
2023-02-22T14:44:42.864Z,11.24
2023-02-22T14:47:14.820Z,11.24
2023-02-22T14:49:44.410Z,11.26
2023-02-22T14:52:18.522Z,11.25
2023-02-22T14:54:51.055Z,11.26
2023-02-22T14:57:21.680Z,11.26
2023-02-22T14:59:53.284Z,11.24
2023-02-22T15:02:22.772Z,11.24
2023-02-22T15:04:53.730Z,11.23
2023-02-22T15:07:22.600Z,11.22
2023-02-22T15:09:51.594Z,11.20
2023-02-22T15:12:22.523Z,11.18
2023-02-22T15:14:51.670Z,11.18
2023-02-22T15:17:19.539Z,11.17
2023-02-22T15:19:47.121Z,11.16
2023-02-22T15:22:19.881Z,11.15
2023-02-22T15:24:49.359Z,11.15
2023-02-22T15:27:19.463Z,11.16
2023-02-22T15:29:47.082Z,11.16
2023-02-22T15:32:21.342Z,11.14
2023-02-22T15:34:48.956Z,11.17
2023-02-22T15:37:22.298Z,11.16
2023-02-22T15:39:57.681Z,11.12
2023-02-22T15:42:29.399Z,11.13
2023-02-22T15:44:57.946Z,11.12
2023-02-22T15:47:27.344Z,11.10
2023-02-22T15:50:15.402Z,11.09
2023-02-22T15:52:53.127Z,11.07
2023-02-22T15:55:20.895Z,11.06
2023-02-22T15:57:49.843Z,11.04
2023-02-22T16:00:22.096Z,11.03
2023-02-22T16:02:51.018Z,11.01
2023-02-22T16:05:19.076Z,11.01
2023-02-22T16:07:48.087Z,10.98
2023-02-22T16:10:22.961Z,10.97
2023-02-22T16:12:52.573Z,10.95
2023-02-22T16:15:20.178Z,10.94
2023-02-22T16:18:01.493Z,10.90
2023-02-22T16:20:36.315Z,10.90
2023-02-22T16:26:05.477Z,11.63
2023-02-22T16:28:35.657Z,11.78
2023-02-22T16:31:04.364Z,11.93
2023-02-22T16:33:34.173Z,12.00
2023-02-22T16:36:08.163Z,12.05
2023-02-22T16:38:38.385Z,12.11
2023-02-22T16:41:08.231Z,12.18
2023-02-22T16:43:36.316Z,12.22
2023-02-22T16:46:06.841Z,12.24
2023-02-22T16:48:38.077Z,12.28
2023-02-22T16:51:15.456Z,12.29
2023-02-22T16:53:44.539Z,12.31
2023-02-22T16:56:16.732Z,12.31
2023-02-22T16:58:45.484Z,12.30
2023-02-22T17:01:13.768Z,12.32
2023-02-22T17:03:41.610Z,12.32
2023-02-22T17:06:10.987Z,12.31
2023-02-22T17:08:38.849Z,12.30
2023-02-22T17:11:07.502Z,12.30
2023-02-22T17:13:36.733Z,12.29
2023-02-22T17:16:05.577Z,12.29
2023-02-22T17:18:34.761Z,12.25
2023-02-22T17:21:03.445Z,12.26
2023-02-22T17:23:31.297Z,12.27
2023-02-22T17:26:00.262Z,12.26
2023-02-22T17:28:28.289Z,12.24
2023-02-22T17:31:01.600Z,12.23
2023-02-22T17:33:32.938Z,12.21
2023-02-22T17:36:02.856Z,12.22
2023-02-22T17:38:30.711Z,12.20
2023-02-22T17:40:59.689Z,12.19
2023-02-22T17:43:28.850Z,12.19
2023-02-22T17:45:58.313Z,12.18
2023-02-22T17:48:26.898Z,12.17
2023-02-22T17:50:54.670Z,12.15
2023-02-22T17:53:24.747Z,12.14
2023-02-22T17:55:52.788Z,12.11
2023-02-22T17:58:20.641Z,12.08
2023-02-22T18:00:50.133Z,12.06
2023-02-22T18:03:21.862Z,12.04
2023-02-22T18:05:51.253Z,11.99
2023-02-22T18:08:19.072Z,11.97
2023-02-22T18:10:47.630Z,11.97
2023-02-22T18:13:17.871Z,11.92
2023-02-22T18:15:45.941Z,11.90
2023-02-22T18:18:14.917Z,11.86
2023-02-22T18:20:44.554Z,11.84
2023-02-22T18:23:14.604Z,11.82
2023-02-22T18:25:57.152Z,11.81
2023-02-22T18:28:31.878Z,11.80
2023-02-22T18:31:00.422Z,11.79
2023-02-22T18:33:28.354Z,11.78
2023-02-22T18:35:59.609Z,11.75
2023-02-22T18:38:27.350Z,11.74
2023-02-22T18:41:02.233Z,11.75
2023-02-22T18:43:31.894Z,11.75
2023-02-22T18:46:09.508Z,11.72
2023-02-22T18:48:38.986Z,11.68
2023-02-22T18:51:10.254Z,11.65
2023-02-22T18:53:38.454Z,11.65
2023-02-22T18:56:09.724Z,11.64
2023-02-22T18:58:38.788Z,11.61
2023-02-22T19:01:07.552Z,11.59
2023-02-22T19:03:38.298Z,11.57
2023-02-22T19:06:09.859Z,11.59
2023-02-22T19:08:39.505Z,11.58
2023-02-22T19:11:08.851Z,11.57
2023-02-22T19:13:36.736Z,11.57
2023-02-22T19:16:05.032Z,11.55
2023-02-22T19:18:32.883Z,11.54
2023-02-22T19:21:01.855Z,11.54
2023-02-22T19:23:34.457Z,11.52
2023-02-22T19:26:03.147Z,11.49
2023-02-22T19:28:34.152Z,11.38
2023-02-22T19:31:12.398Z,11.43
2023-02-22T19:33:40.274Z,11.41
2023-02-22T19:36:09.310Z,11.37
2023-02-22T19:38:38.626Z,11.36
2023-02-22T19:41:10.848Z,11.33
2023-02-22T19:43:38.541Z,11.34
2023-02-22T19:46:07.373Z,11.32
2023-02-22T19:48:35.173Z,11.29
2023-02-22T19:51:06.219Z,11.29
2023-02-22T19:53:34.217Z,11.30
2023-02-22T19:56:06.880Z,11.30
2023-02-22T19:58:36.754Z,11.30
2023-02-22T20:01:12.149Z,11.29
2023-02-22T20:03:41.016Z,11.30
2023-02-22T20:06:09.911Z,11.26
2023-02-22T20:08:41.830Z,11.21
2023-02-22T20:11:12.029Z,11.20
2023-02-22T20:13:40.859Z,11.20
2023-02-22T20:16:09.874Z,11.19
2023-02-22T20:18:37.802Z,11.18
2023-02-22T20:21:09.448Z,11.17
2023-02-22T20:23:40.152Z,11.15
2023-02-22T20:26:17.437Z,11.13
2023-02-22T20:28:45.277Z,11.11
2023-02-22T20:31:14.445Z,11.09
2023-02-22T20:33:42.860Z,11.07
2023-02-22T20:36:11.557Z,11.09
2023-02-22T20:38:39.696Z,11.10
2023-02-22T20:41:08.108Z,11.09
2023-02-22T20:43:37.314Z,11.12
2023-02-22T20:46:06.426Z,11.10
2023-02-22T20:48:35.448Z,11.08
2023-02-22T20:51:06.772Z,11.02
2023-02-22T20:53:35.337Z,10.98
2023-02-22T20:56:03.273Z,11.02
2023-02-22T20:58:31.003Z,11.02
2023-02-22T21:01:06.297Z,11.03
2023-02-22T21:03:34.179Z,11.03
2023-02-22T21:06:02.414Z,11.04
2023-02-22T21:08:31.219Z,11.05
2023-02-22T21:10:59.454Z,11.06
2023-02-22T21:13:28.230Z,11.05
2023-02-22T21:15:56.384Z,11.05
2023-02-22T21:18:25.576Z,11.05
2023-02-22T21:20:53.785Z,11.06
2023-02-22T21:23:21.634Z,11.04
2023-02-22T21:25:53.025Z,11.04
2023-02-22T21:28:21.236Z,11.01
2023-02-22T21:30:49.023Z,11.01
2023-02-22T21:33:16.990Z,11.00
2023-02-22T21:35:47.291Z,11.02
2023-02-22T21:38:15.322Z,11.03
2023-02-22T21:40:47.602Z,11.03
2023-02-22T21:43:16.664Z,11.01
2023-02-22T21:45:44.497Z,10.99
2023-02-22T21:48:12.285Z,10.99
2023-02-22T21:50:40.669Z,10.96
2023-02-22T21:53:09.917Z,10.94
2023-02-22T21:55:38.317Z,10.96
2023-02-22T21:58:08.656Z,10.94
2023-02-22T22:00:39.126Z,10.94
2023-02-22T22:03:11.647Z,10.95
2023-02-22T22:05:40.351Z,10.98
2023-02-22T22:08:13.311Z,10.95
2023-02-22T22:10:41.090Z,10.93
2023-02-22T22:13:09.167Z,10.92
2023-02-22T22:15:37.490Z,10.93
2023-02-22T22:18:08.078Z,10.92
2023-02-22T22:20:39.059Z,10.93
2023-02-22T22:23:08.889Z,10.94
2023-02-22T22:25:38.960Z,10.94
2023-02-22T22:28:07.917Z,10.95
2023-02-22T22:30:37.067Z,10.96
2023-02-22T22:33:05.862Z,10.96
2023-02-22T22:35:33.758Z,10.98
2023-02-22T22:38:02.119Z,10.96
2023-02-22T22:40:30.103Z,10.95
2023-02-22T22:42:59.264Z,10.94
2023-02-22T22:45:26.992Z,10.93
2023-02-22T22:47:54.863Z,10.93
2023-02-22T22:50:26.348Z,10.93
2023-02-22T22:52:56.855Z,10.93
2023-02-22T22:55:25.019Z,10.90
2023-02-22T22:57:52.761Z,10.90
2023-02-22T23:00:35.900Z,10.89
2023-02-22T23:03:05.506Z,10.90
2023-02-22T23:05:37.277Z,10.89
2023-02-22T23:08:06.050Z,10.89
2023-02-22T23:10:39.258Z,10.89
2023-02-22T23:13:09.848Z,10.84
2023-02-22T23:15:42.948Z,10.84
2023-02-22T23:18:11.029Z,10.80
2023-02-22T23:20:39.071Z,10.80
2023-02-22T23:23:07.138Z,10.82
2023-02-22T23:25:35.161Z,10.84
2023-02-22T23:28:03.053Z,10.85
2023-02-22T23:30:30.885Z,10.81
2023-02-22T23:33:01.212Z,10.77
2023-02-22T23:35:28.991Z,10.75
2023-02-22T23:37:58.666Z,10.74
2023-02-22T23:40:26.890Z,10.76
2023-02-22T23:42:54.914Z,10.78
2023-02-22T23:45:24.517Z,10.78
2023-02-22T23:47:54.982Z,10.75
2023-02-22T23:50:25.950Z,10.75
2023-02-22T23:52:58.621Z,10.74
2023-02-22T23:55:27.031Z,10.77
2023-02-22T23:57:59.287Z,10.77
